Terminal Aerodrome Forecast
Issued by NWS

Home | Current Version | Previous Version | Text Only | Print | Product List | Glossary Off
Versions: 1 2 3 4 5 6 7 8 9 10 11 12 13 14 15 16 17 18

000
FTUS43 KTOP 270300 AAA
TAFMHK
TAF AMD
KMHK 270315Z 2703/2724 04012G22KT 6SM -RA BR OVC035
      TEMPO 2703/2705 4SM -RASN OVC020
     FM270500 03012KT 3SM -RA BR OVC012
     FM270800 02004KT 6SM BR BKN012
     FM271400 02005KT P6SM SCT025=

USA.gov is the U.S. government's official web portal to all federal, state and local government web resources and services.